sensor_id;sensor_type;location;lat;lon;timestamp;temperature;humidity
5055;DHT22;13829;48.990;8.346;2024-03-22T00:00:03;10.20;99.90
5055;DHT22;13829;48.990;8.346;2024-03-22T00:02:31;10.20;99.90
5055;DHT22;13829;48.990;8.346;2024-03-22T00:04:58;10.00;99.90
5055;DHT22;13829;48.990;8.346;2024-03-22T00:07:24;10.00;99.90
5055;DHT22;13829;48.990;8.346;2024-03-22T00:09:51;10.00;99.90
5055;DHT22;13829;48.990;8.346;2024-03-22T00:12:18;10.00;99.90
5055;DHT22;13829;48.990;8.346;2024-03-22T00:14:45;10.10;99.90
5055;DHT22;13829;48.990;8.346;2024-03-22T00:17:12;10.00;99.90
5055;DHT22;13829;48.990;8.346;2024-03-22T00:19:38;10.00;99.90
5055;DHT22;13829;48.990;8.346;2024-03-22T00:22:05;10.00;99.90
5055;DHT22;13829;48.990;8.346;2024-03-22T00:24:31;10.00;99.90
5055;DHT22;13829;48.990;8.346;2024-03-22T00:26:58;10.10;99.90
5055;DHT22;13829;48.990;8.346;2024-03-22T00:29:24;10.10;99.90
5055;DHT22;13829;48.990;8.346;2024-03-22T00:31:53;10.10;99.90
5055;DHT22;13829;48.990;8.346;2024-03-22T00:34:19;10.00;99.90
5055;DHT22;13829;48.990;8.346;2024-03-22T00:36:46;9.90;99.90
5055;DHT22;13829;48.990;8.346;2024-03-22T00:39:12;9.80;99.90
5055;DHT22;13829;48.990;8.346;2024-03-22T00:41:39;9.80;99.90
5055;DHT22;13829;48.990;8.346;2024-03-22T00:44:05;9.80;99.90
5055;DHT22;13829;48.990;8.346;2024-03-22T00:46:32;9.70;99.90
5055;DHT22;13829;48.990;8.346;2024-03-22T00:48:59;9.80;99.90
5055;DHT22;13829;48.990;8.346;2024-03-22T00:51:26;9.80;99.90
5055;DHT22;13829;48.990;8.346;2024-03-22T00:53:52;9.80;99.90
5055;DHT22;13829;48.990;8.346;2024-03-22T00:56:19;9.80;99.90
5055;DHT22;13829;48.990;8.346;2024-03-22T00:58:46;9.70;99.90
5055;DHT22;13829;48.990;8.346;2024-03-22T01:01:13;9.60;99.90
5055;DHT22;13829;48.990;8.346;2024-03-22T01:03:40;9.60;99.90
5055;DHT22;13829;48.990;8.346;2024-03-22T01:06:07;9.50;99.90
5055;DHT22;13829;48.990;8.346;2024-03-22T01:08:34;9.50;99.90
5055;DHT22;13829;48.990;8.346;2024-03-22T01:11:00;9.50;99.90
5055;DHT22;13829;48.990;8.346;2024-03-22T01:13:27;9.50;99.90
5055;DHT22;13829;48.990;8.346;2024-03-22T01:15:53;9.50;99.90
5055;DHT22;13829;48.990;8.346;2024-03-22T01:18:20;9.40;99.90
5055;DHT22;13829;48.990;8.346;2024-03-22T01:20:46;9.30;99.90
5055;DHT22;13829;48.990;8.346;2024-03-22T01:23:14;9.30;99.90
5055;DHT22;13829;48.990;8.346;2024-03-22T01:25:40;9.20;99.90
5055;DHT22;13829;48.990;8.346;2024-03-22T01:28:07;9.30;99.90
5055;DHT22;13829;48.990;8.346;2024-03-22T01:30:34;9.30;99.90
5055;DHT22;13829;48.990;8.346;2024-03-22T01:33:02;9.30;99.90
5055;DHT22;13829;48.990;8.346;2024-03-22T01:35:29;9.40;99.90
5055;DHT22;13829;48.990;8.346;2024-03-22T01:37:55;9.20;99.90
5055;DHT22;13829;48.990;8.346;2024-03-22T01:40:23;9.20;99.90
5055;DHT22;13829;48.990;8.346;2024-03-22T01:42:53;9.20;99.90
5055;DHT22;13829;48.990;8.346;2024-03-22T01:45:20;9.20;99.90
5055;DHT22;13829;48.990;8.346;2024-03-22T01:47:48;9.20;99.90
5055;DHT22;13829;48.990;8.346;2024-03-22T01:50:15;9.10;99.90
5055;DHT22;13829;48.990;8.346;2024-03-22T01:52:41;9.10;99.90
5055;DHT22;13829;48.990;8.346;2024-03-22T01:55:08;9.20;99.90
5055;DHT22;13829;48.990;8.346;2024-03-22T01:57:36;9.10;99.90
5055;DHT22;13829;48.990;8.346;2024-03-22T02:00:06;9.10;99.90
5055;DHT22;13829;48.990;8.346;2024-03-22T02:02:34;9.10;99.90
5055;DHT22;13829;48.990;8.346;2024-03-22T02:05:11;9.00;99.90
5055;DHT22;13829;48.990;8.346;2024-03-22T02:07:38;9.10;99.90
5055;DHT22;13829;48.990;8.346;2024-03-22T02:10:06;9.10;99.90
5055;DHT22;13829;48.990;8.346;2024-03-22T02:12:34;9.10;99.90
5055;DHT22;13829;48.990;8.346;2024-03-22T02:15:02;9.20;99.90
5055;DHT22;13829;48.990;8.346;2024-03-22T02:17:28;9.30;99.90
5055;DHT22;13829;48.990;8.346;2024-03-22T02:19:55;9.30;99.90
5055;DHT22;13829;48.990;8.346;2024-03-22T02:22:21;9.30;99.90
5055;DHT22;13829;48.990;8.346;2024-03-22T02:24:49;9.40;99.90
5055;DHT22;13829;48.990;8.346;2024-03-22T02:27:16;9.40;99.90
5055;DHT22;13829;48.990;8.346;2024-03-22T02:29:43;9.40;99.90
5055;DHT22;13829;48.990;8.346;2024-03-22T02:32:10;9.50;99.90
5055;DHT22;13829;48.990;8.346;2024-03-22T02:34:37;9.60;99.90
5055;DHT22;13829;48.990;8.346;2024-03-22T02:37:03;9.70;99.90
5055;DHT22;13829;48.990;8.346;2024-03-22T02:39:30;9.80;99.90
5055;DHT22;13829;48.990;8.346;2024-03-22T02:41:57;9.80;99.90
5055;DHT22;13829;48.990;8.346;2024-03-22T02:44:24;9.70;99.90
5055;DHT22;13829;48.990;8.346;2024-03-22T02:46:50;9.70;99.90
5055;DHT22;13829;48.990;8.346;2024-03-22T02:49:17;9.70;99.90
5055;DHT22;13829;48.990;8.346;2024-03-22T02:51:43;9.80;99.90
5055;DHT22;13829;48.990;8.346;2024-03-22T02:54:11;9.90;99.90
5055;DHT22;13829;48.990;8.346;2024-03-22T02:56:37;9.90;99.90
5055;DHT22;13829;48.990;8.346;2024-03-22T02:59:05;10.00;99.90
5055;DHT22;13829;48.990;8.346;2024-03-22T03:01:31;10.00;99.90
5055;DHT22;13829;48.990;8.346;2024-03-22T03:03:58;10.00;99.90
5055;DHT22;13829;48.990;8.346;2024-03-22T03:06:24;10.00;99.90
5055;DHT22;13829;48.990;8.346;2024-03-22T03:08:51;9.90;99.90
5055;DHT22;13829;48.990;8.346;2024-03-22T03:11:17;9.90;99.90
5055;DHT22;13829;48.990;8.346;2024-03-22T03:13:43;9.80;99.90
5055;DHT22;13829;48.990;8.346;2024-03-22T03:16:11;9.60;99.90
5055;DHT22;13829;48.990;8.346;2024-03-22T03:18:38;9.50;99.90
5055;DHT22;13829;48.990;8.346;2024-03-22T03:21:04;9.40;99.90
5055;DHT22;13829;48.990;8.346;2024-03-22T03:23:31;9.40;99.90
5055;DHT22;13829;48.990;8.346;2024-03-22T03:25:57;9.30;99.90
5055;DHT22;13829;48.990;8.346;2024-03-22T03:28:23;9.30;99.90
5055;DHT22;13829;48.990;8.346;2024-03-22T03:30:51;9.20;99.90
5055;DHT22;13829;48.990;8.346;2024-03-22T03:33:19;9.30;99.90
5055;DHT22;13829;48.990;8.346;2024-03-22T03:35:46;9.20;99.90
5055;DHT22;13829;48.990;8.346;2024-03-22T03:38:13;9.30;99.90
5055;DHT22;13829;48.990;8.346;2024-03-22T03:40:39;9.30;99.90
5055;DHT22;13829;48.990;8.346;2024-03-22T03:43:06;9.30;99.90
5055;DHT22;13829;48.990;8.346;2024-03-22T03:45:32;9.30;99.90
5055;DHT22;13829;48.990;8.346;2024-03-22T03:47:59;9.40;99.90
5055;DHT22;13829;48.990;8.346;2024-03-22T03:50:26;9.50;99.90
5055;DHT22;13829;48.990;8.346;2024-03-22T03:52:53;9.50;99.90
5055;DHT22;13829;48.990;8.346;2024-03-22T03:55:19;9.50;99.90
5055;DHT22;13829;48.990;8.346;2024-03-22T03:57:46;9.50;99.90
5055;DHT22;13829;48.990;8.346;2024-03-22T04:00:12;9.50;99.90
5055;DHT22;13829;48.990;8.346;2024-03-22T04:02:39;9.50;99.90
5055;DHT22;13829;48.990;8.346;2024-03-22T04:05:05;9.50;99.90
5055;DHT22;13829;48.990;8.346;2024-03-22T04:07:34;9.50;99.90
5055;DHT22;13829;48.990;8.346;2024-03-22T04:10:00;9.50;99.90
5055;DHT22;13829;48.990;8.346;2024-03-22T04:12:28;9.60;99.90
5055;DHT22;13829;48.990;8.346;2024-03-22T04:14:54;9.60;99.90
5055;DHT22;13829;48.990;8.346;2024-03-22T04:17:21;9.60;99.90
5055;DHT22;13829;48.990;8.346;2024-03-22T04:19:49;9.60;99.90
5055;DHT22;13829;48.990;8.346;2024-03-22T04:22:17;9.60;99.90
5055;DHT22;13829;48.990;8.346;2024-03-22T04:24:44;9.50;99.90
5055;DHT22;13829;48.990;8.346;2024-03-22T04:27:11;9.50;99.90
5055;DHT22;13829;48.990;8.346;2024-03-22T04:29:37;9.50;99.90
5055;DHT22;13829;48.990;8.346;2024-03-22T04:32:04;9.30;99.90
5055;DHT22;13829;48.990;8.346;2024-03-22T04:34:30;9.50;99.90
5055;DHT22;13829;48.990;8.346;2024-03-22T04:36:57;9.50;99.90
5055;DHT22;13829;48.990;8.346;2024-03-22T04:39:24;9.40;99.90
5055;DHT22;13829;48.990;8.346;2024-03-22T04:41:52;9.40;99.90
5055;DHT22;13829;48.990;8.346;2024-03-22T04:44:19;9.40;99.90
5055;DHT22;13829;48.990;8.346;2024-03-22T04:46:46;9.40;99.90
5055;DHT22;13829;48.990;8.346;2024-03-22T04:49:12;9.40;99.90
5055;DHT22;13829;48.990;8.346;2024-03-22T04:51:39;9.30;99.90
5055;DHT22;13829;48.990;8.346;2024-03-22T04:54:05;9.30;99.90
5055;DHT22;13829;48.990;8.346;2024-03-22T04:56:32;9.30;99.90
5055;DHT22;13829;48.990;8.346;2024-03-22T04:58:59;9.30;99.90
5055;DHT22;13829;48.990;8.346;2024-03-22T05:01:26;9.30;99.90
5055;DHT22;13829;48.990;8.346;2024-03-22T05:03:52;9.30;99.90
5055;DHT22;13829;48.990;8.346;2024-03-22T05:06:20;9.20;99.90
5055;DHT22;13829;48.990;8.346;2024-03-22T05:08:46;9.20;99.90
5055;DHT22;13829;48.990;8.346;2024-03-22T05:11:13;9.30;99.90
5055;DHT22;13829;48.990;8.346;2024-03-22T05:13:39;9.30;99.90
5055;DHT22;13829;48.990;8.346;2024-03-22T05:16:07;9.40;99.90
5055;DHT22;13829;48.990;8.346;2024-03-22T05:18:33;9.40;99.90
5055;DHT22;13829;48.990;8.346;2024-03-22T05:21:00;9.40;99.90
5055;DHT22;13829;48.990;8.346;2024-03-22T05:23:26;9.40;99.90
5055;DHT22;13829;48.990;8.346;2024-03-22T05:25:53;9.40;99.90
5055;DHT22;13829;48.990;8.346;2024-03-22T05:28:19;9.40;99.90
5055;DHT22;13829;48.990;8.346;2024-03-22T05:30:47;9.40;99.90
5055;DHT22;13829;48.990;8.346;2024-03-22T05:33:14;9.50;99.90
5055;DHT22;13829;48.990;8.346;2024-03-22T05:35:41;9.50;99.90
5055;DHT22;13829;48.990;8.346;2024-03-22T05:38:07;9.50;99.90
5055;DHT22;13829;48.990;8.346;2024-03-22T05:40:36;9.60;99.90
5055;DHT22;13829;48.990;8.346;2024-03-22T05:43:04;9.80;99.90
5055;DHT22;13829;48.990;8.346;2024-03-22T05:45:31;9.90;99.90
5055;DHT22;13829;48.990;8.346;2024-03-22T05:47:57;10.00;99.90
5055;DHT22;13829;48.990;8.346;2024-03-22T05:50:25;10.20;99.90
5055;DHT22;13829;48.990;8.346;2024-03-22T05:52:51;10.50;99.90
5055;DHT22;13829;48.990;8.346;2024-03-22T05:55:18;10.50;99.90
5055;DHT22;13829;48.990;8.346;2024-03-22T05:57:44;10.60;99.90
5055;DHT22;13829;48.990;8.346;2024-03-22T06:00:12;10.80;99.90
5055;DHT22;13829;48.990;8.346;2024-03-22T06:02:39;10.80;99.90
5055;DHT22;13829;48.990;8.346;2024-03-22T06:05:06;11.00;99.90
5055;DHT22;13829;48.990;8.346;2024-03-22T06:07:33;11.00;99.90
5055;DHT22;13829;48.990;8.346;2024-03-22T06:10:07;11.10;99.90
5055;DHT22;13829;48.990;8.346;2024-03-22T06:12:33;11.10;99.90
5055;DHT22;13829;48.990;8.346;2024-03-22T06:15:01;11.20;99.90
5055;DHT22;13829;48.990;8.346;2024-03-22T06:17:27;11.10;99.90
5055;DHT22;13829;48.990;8.346;2024-03-22T06:19:54;11.10;99.90
5055;DHT22;13829;48.990;8.346;2024-03-22T06:22:20;11.20;99.90
5055;DHT22;13829;48.990;8.346;2024-03-22T06:24:48;11.20;99.90
5055;DHT22;13829;48.990;8.346;2024-03-22T06:27:14;11.30;99.90
5055;DHT22;13829;48.990;8.346;2024-03-22T06:29:41;11.30;99.90
5055;DHT22;13829;48.990;8.346;2024-03-22T06:32:07;11.40;99.90
5055;DHT22;13829;48.990;8.346;2024-03-22T06:34:34;11.40;99.90
5055;DHT22;13829;48.990;8.346;2024-03-22T06:37:00;11.40;99.90
5055;DHT22;13829;48.990;8.346;2024-03-22T06:39:27;11.50;99.90
5055;DHT22;13829;48.990;8.346;2024-03-22T06:41:54;11.50;99.90
5055;DHT22;13829;48.990;8.346;2024-03-22T06:44:22;11.50;99.90
5055;DHT22;13829;48.990;8.346;2024-03-22T06:46:47;11.50;99.90
5055;DHT22;13829;48.990;8.346;2024-03-22T06:49:14;11.40;99.90
5055;DHT22;13829;48.990;8.346;2024-03-22T06:51:40;11.40;99.90
5055;DHT22;13829;48.990;8.346;2024-03-22T06:54:07;11.60;99.90
5055;DHT22;13829;48.990;8.346;2024-03-22T06:56:33;12.00;99.90
5055;DHT22;13829;48.990;8.346;2024-03-22T06:59:02;13.20;99.90
5055;DHT22;13829;48.990;8.346;2024-03-22T07:01:28;14.70;99.90
5055;DHT22;13829;48.990;8.346;2024-03-22T07:03:55;16.20;99.90
5055;DHT22;13829;48.990;8.346;2024-03-22T07:06:21;17.20;99.90
5055;DHT22;13829;48.990;8.346;2024-03-22T07:08:48;17.90;99.50
5055;DHT22;13829;48.990;8.346;2024-03-22T07:11:14;18.90;98.20
5055;DHT22;13829;48.990;8.346;2024-03-22T07:13:40;19.10;97.40
5055;DHT22;13829;48.990;8.346;2024-03-22T07:16:08;19.40;96.90
5055;DHT22;13829;48.990;8.346;2024-03-22T07:18:35;20.30;96.00
5055;DHT22;13829;48.990;8.346;2024-03-22T07:21:02;20.30;95.10
5055;DHT22;13829;48.990;8.346;2024-03-22T07:23:29;21.20;94.00
5055;DHT22;13829;48.990;8.346;2024-03-22T07:25:55;21.50;93.00
5055;DHT22;13829;48.990;8.346;2024-03-22T07:28:22;21.50;92.50
5055;DHT22;13829;48.990;8.346;2024-03-22T07:30:48;22.30;92.00
5055;DHT22;13829;48.990;8.346;2024-03-22T07:33:16;22.90;90.00
5055;DHT22;13829;48.990;8.346;2024-03-22T07:35:43;23.00;88.10
5055;DHT22;13829;48.990;8.346;2024-03-22T07:38:10;22.50;88.40
5055;DHT22;13829;48.990;8.346;2024-03-22T07:40:36;22.10;87.40
5055;DHT22;13829;48.990;8.346;2024-03-22T07:43:03;21.80;88.20
5055;DHT22;13829;48.990;8.346;2024-03-22T07:45:31;22.40;88.50
5055;DHT22;13829;48.990;8.346;2024-03-22T07:47:59;23.00;86.60
5055;DHT22;13829;48.990;8.346;2024-03-22T07:50:27;23.30;85.80
5055;DHT22;13829;48.990;8.346;2024-03-22T07:52:54;23.70;83.80
5055;DHT22;13829;48.990;8.346;2024-03-22T07:55:20;24.20;83.10
5055;DHT22;13829;48.990;8.346;2024-03-22T07:57:48;24.70;81.00
5055;DHT22;13829;48.990;8.346;2024-03-22T08:00:14;24.60;81.20
5055;DHT22;13829;48.990;8.346;2024-03-22T08:02:42;25.00;80.00
5055;DHT22;13829;48.990;8.346;2024-03-22T08:05:08;24.70;79.70
5055;DHT22;13829;48.990;8.346;2024-03-22T08:07:36;25.00;79.60
5055;DHT22;13829;48.990;8.346;2024-03-22T08:10:03;24.80;79.60
5055;DHT22;13829;48.990;8.346;2024-03-22T08:12:30;24.80;81.80
5055;DHT22;13829;48.990;8.346;2024-03-22T08:14:56;25.00;78.80
5055;DHT22;13829;48.990;8.346;2024-03-22T08:17:23;25.20;81.20
5055;DHT22;13829;48.990;8.346;2024-03-22T08:19:50;25.50;78.30
5055;DHT22;13829;48.990;8.346;2024-03-22T08:22:17;25.20;79.70
5055;DHT22;13829;48.990;8.346;2024-03-22T08:24:44;24.70;81.40
5055;DHT22;13829;48.990;8.346;2024-03-22T08:27:11;24.50;81.20
5055;DHT22;13829;48.990;8.346;2024-03-22T08:29:37;23.90;80.70
5055;DHT22;13829;48.990;8.346;2024-03-22T08:32:07;23.10;82.00
5055;DHT22;13829;48.990;8.346;2024-03-22T08:34:33;22.50;86.00
5055;DHT22;13829;48.990;8.346;2024-03-22T08:37:01;22.20;85.30
5055;DHT22;13829;48.990;8.346;2024-03-22T08:39:29;21.60;86.80
5055;DHT22;13829;48.990;8.346;2024-03-22T08:41:57;21.10;88.90
5055;DHT22;13829;48.990;8.346;2024-03-22T08:44:23;20.60;90.50
5055;DHT22;13829;48.990;8.346;2024-03-22T08:46:50;20.50;90.90
5055;DHT22;13829;48.990;8.346;2024-03-22T08:49:17;20.40;91.60
5055;DHT22;13829;48.990;8.346;2024-03-22T08:51:44;20.30;91.80
5055;DHT22;13829;48.990;8.346;2024-03-22T08:54:11;20.20;91.60
5055;DHT22;13829;48.990;8.346;2024-03-22T08:56:38;20.10;91.90
5055;DHT22;13829;48.990;8.346;2024-03-22T08:59:05;19.90;92.50
5055;DHT22;13829;48.990;8.346;2024-03-22T09:01:32;19.60;92.80
5055;DHT22;13829;48.990;8.346;2024-03-22T09:03:58;19.50;93.50
5055;DHT22;13829;48.990;8.346;2024-03-22T09:06:25;19.40;93.70
5055;DHT22;13829;48.990;8.346;2024-03-22T09:08:51;19.40;93.90
5055;DHT22;13829;48.990;8.346;2024-03-22T09:11:20;19.40;94.00
5055;DHT22;13829;48.990;8.346;2024-03-22T09:13:47;19.40;94.60
5055;DHT22;13829;48.990;8.346;2024-03-22T09:16:16;19.50;94.40
5055;DHT22;13829;48.990;8.346;2024-03-22T09:18:42;19.50;95.20
5055;DHT22;13829;48.990;8.346;2024-03-22T09:21:09;19.40;94.00
5055;DHT22;13829;48.990;8.346;2024-03-22T09:23:36;19.40;94.80
5055;DHT22;13829;48.990;8.346;2024-03-22T09:26:03;19.30;95.10
5055;DHT22;13829;48.990;8.346;2024-03-22T09:28:29;19.10;95.20
5055;DHT22;13829;48.990;8.346;2024-03-22T09:30:57;18.90;95.90
5055;DHT22;13829;48.990;8.346;2024-03-22T09:33:24;18.80;95.20
5055;DHT22;13829;48.990;8.346;2024-03-22T09:35:51;18.70;95.70
5055;DHT22;13829;48.990;8.346;2024-03-22T09:38:17;18.80;95.40
5055;DHT22;13829;48.990;8.346;2024-03-22T09:40:44;18.70;95.90
5055;DHT22;13829;48.990;8.346;2024-03-22T09:43:12;18.70;96.30
5055;DHT22;13829;48.990;8.346;2024-03-22T09:45:44;18.50;95.70
5055;DHT22;13829;48.990;8.346;2024-03-22T09:48:11;18.40;95.30
5055;DHT22;13829;48.990;8.346;2024-03-22T09:50:39;18.30;95.60
5055;DHT22;13829;48.990;8.346;2024-03-22T09:53:06;18.30;95.50
5055;DHT22;13829;48.990;8.346;2024-03-22T09:55:35;18.40;96.50
5055;DHT22;13829;48.990;8.346;2024-03-22T09:58:03;18.40;96.50
5055;DHT22;13829;48.990;8.346;2024-03-22T10:00:30;18.30;96.00
5055;DHT22;13829;48.990;8.346;2024-03-22T10:02:57;18.40;96.70
5055;DHT22;13829;48.990;8.346;2024-03-22T10:05:25;18.50;97.10
5055;DHT22;13829;48.990;8.346;2024-03-22T10:07:53;18.50;96.00
5055;DHT22;13829;48.990;8.346;2024-03-22T10:10:21;18.70;96.60
5055;DHT22;13829;48.990;8.346;2024-03-22T10:12:48;18.70;96.50
5055;DHT22;13829;48.990;8.346;2024-03-22T10:15:15;18.80;96.30
5055;DHT22;13829;48.990;8.346;2024-03-22T10:17:42;19.00;96.00
5055;DHT22;13829;48.990;8.346;2024-03-22T10:20:13;19.10;96.30
5055;DHT22;13829;48.990;8.346;2024-03-22T10:22:42;19.10;96.10
5055;DHT22;13829;48.990;8.346;2024-03-22T10:25:10;19.20;96.20
5055;DHT22;13829;48.990;8.346;2024-03-22T10:27:38;19.20;96.90
5055;DHT22;13829;48.990;8.346;2024-03-22T10:30:08;19.40;96.30
5055;DHT22;13829;48.990;8.346;2024-03-22T10:32:35;19.50;95.70
5055;DHT22;13829;48.990;8.346;2024-03-22T10:35:03;19.40;95.10
5055;DHT22;13829;48.990;8.346;2024-03-22T10:37:32;19.30;95.20
5055;DHT22;13829;48.990;8.346;2024-03-22T10:40:01;19.30;95.60
5055;DHT22;13829;48.990;8.346;2024-03-22T10:42:34;19.30;95.80
5055;DHT22;13829;48.990;8.346;2024-03-22T10:45:02;19.20;94.60
5055;DHT22;13829;48.990;8.346;2024-03-22T10:47:30;19.20;95.10
5055;DHT22;13829;48.990;8.346;2024-03-22T10:50:04;19.10;95.10
5055;DHT22;13829;48.990;8.346;2024-03-22T10:52:33;19.10;95.70
5055;DHT22;13829;48.990;8.346;2024-03-22T10:55:05;19.10;95.20
5055;DHT22;13829;48.990;8.346;2024-03-22T10:57:37;19.10;94.30
5055;DHT22;13829;48.990;8.346;2024-03-22T11:00:09;19.10;94.80
5055;DHT22;13829;48.990;8.346;2024-03-22T11:02:36;19.00;94.50
5055;DHT22;13829;48.990;8.346;2024-03-22T11:05:03;19.00;95.40
5055;DHT22;13829;48.990;8.346;2024-03-22T11:07:30;19.10;95.50
5055;DHT22;13829;48.990;8.346;2024-03-22T11:09:57;19.30;95.50
5055;DHT22;13829;48.990;8.346;2024-03-22T11:12:24;19.40;95.40
5055;DHT22;13829;48.990;8.346;2024-03-22T11:14:55;19.50;94.90
5055;DHT22;13829;48.990;8.346;2024-03-22T11:17:21;19.60;94.80
5055;DHT22;13829;48.990;8.346;2024-03-22T11:19:50;19.60;94.80
5055;DHT22;13829;48.990;8.346;2024-03-22T11:22:16;19.40;94.80
5055;DHT22;13829;48.990;8.346;2024-03-22T11:24:44;19.30;94.70
5055;DHT22;13829;48.990;8.346;2024-03-22T11:27:09;19.40;95.10
5055;DHT22;13829;48.990;8.346;2024-03-22T11:29:37;19.50;95.40
5055;DHT22;13829;48.990;8.346;2024-03-22T11:32:07;19.60;95.90
5055;DHT22;13829;48.990;8.346;2024-03-22T11:34:35;19.70;94.40
5055;DHT22;13829;48.990;8.346;2024-03-22T11:37:01;19.70;94.50
5055;DHT22;13829;48.990;8.346;2024-03-22T11:39:28;19.80;94.30
5055;DHT22;13829;48.990;8.346;2024-03-22T11:41:54;19.80;94.40
5055;DHT22;13829;48.990;8.346;2024-03-22T11:44:22;19.90;94.10
5055;DHT22;13829;48.990;8.346;2024-03-22T11:46:51;19.90;93.50
5055;DHT22;13829;48.990;8.346;2024-03-22T11:49:19;20.00;93.20
5055;DHT22;13829;48.990;8.346;2024-03-22T11:51:46;20.10;93.10
5055;DHT22;13829;48.990;8.346;2024-03-22T11:54:13;20.10;93.10
5055;DHT22;13829;48.990;8.346;2024-03-22T11:56:39;19.70;92.80
5055;DHT22;13829;48.990;8.346;2024-03-22T11:59:06;19.90;93.10
5055;DHT22;13829;48.990;8.346;2024-03-22T12:01:33;19.90;93.90
5055;DHT22;13829;48.990;8.346;2024-03-22T12:04:00;20.00;93.10
5055;DHT22;13829;48.990;8.346;2024-03-22T12:06:27;20.00;93.10
5055;DHT22;13829;48.990;8.346;2024-03-22T12:08:54;20.00;92.60
5055;DHT22;13829;48.990;8.346;2024-03-22T12:11:20;20.10;93.40
5055;DHT22;13829;48.990;8.346;2024-03-22T12:13:47;20.10;93.10
5055;DHT22;13829;48.990;8.346;2024-03-22T12:16:13;20.20;92.80
5055;DHT22;13829;48.990;8.346;2024-03-22T12:18:40;20.20;91.90
5055;DHT22;13829;48.990;8.346;2024-03-22T12:21:06;20.20;91.90
5055;DHT22;13829;48.990;8.346;2024-03-22T12:23:35;20.10;92.40
5055;DHT22;13829;48.990;8.346;2024-03-22T12:26:00;20.30;91.90
5055;DHT22;13829;48.990;8.346;2024-03-22T12:28:27;20.20;91.00
5055;DHT22;13829;48.990;8.346;2024-03-22T12:30:53;20.20;92.00
5055;DHT22;13829;48.990;8.346;2024-03-22T12:33:20;20.20;90.90
5055;DHT22;13829;48.990;8.346;2024-03-22T12:35:46;20.20;90.40
5055;DHT22;13829;48.990;8.346;2024-03-22T12:38:13;20.10;90.70
5055;DHT22;13829;48.990;8.346;2024-03-22T12:40:41;20.10;91.40
5055;DHT22;13829;48.990;8.346;2024-03-22T12:43:09;20.10;89.30
5055;DHT22;13829;48.990;8.346;2024-03-22T12:45:36;20.10;90.20
5055;DHT22;13829;48.990;8.346;2024-03-22T12:48:04;20.10;91.30
5055;DHT22;13829;48.990;8.346;2024-03-22T12:50:31;20.20;91.20
5055;DHT22;13829;48.990;8.346;2024-03-22T12:52:58;20.20;90.10
5055;DHT22;13829;48.990;8.346;2024-03-22T12:55:24;20.20;90.80
5055;DHT22;13829;48.990;8.346;2024-03-22T12:57:55;20.40;90.20
5055;DHT22;13829;48.990;8.346;2024-03-22T13:00:21;20.40;88.10
5055;DHT22;13829;48.990;8.346;2024-03-22T13:02:48;20.50;86.60
5055;DHT22;13829;48.990;8.346;2024-03-22T13:05:14;20.40;85.60
5055;DHT22;13829;48.990;8.346;2024-03-22T13:07:41;20.30;87.90
5055;DHT22;13829;48.990;8.346;2024-03-22T13:10:08;20.10;89.70
5055;DHT22;13829;48.990;8.346;2024-03-22T13:12:36;20.20;87.80
5055;DHT22;13829;48.990;8.346;2024-03-22T13:15:04;20.10;85.80
5055;DHT22;13829;48.990;8.346;2024-03-22T13:17:31;20.20;86.10
5055;DHT22;13829;48.990;8.346;2024-03-22T13:19:57;20.10;87.30
5055;DHT22;13829;48.990;8.346;2024-03-22T13:22:25;20.20;87.40
5055;DHT22;13829;48.990;8.346;2024-03-22T13:24:51;20.30;86.10
5055;DHT22;13829;48.990;8.346;2024-03-22T13:27:19;20.10;87.80
5055;DHT22;13829;48.990;8.346;2024-03-22T13:29:48;19.90;85.30
5055;DHT22;13829;48.990;8.346;2024-03-22T13:32:16;19.90;88.20
5055;DHT22;13829;48.990;8.346;2024-03-22T13:34:43;19.70;88.90
5055;DHT22;13829;48.990;8.346;2024-03-22T13:37:10;19.60;88.80
5055;DHT22;13829;48.990;8.346;2024-03-22T13:39:36;19.40;89.50
5055;DHT22;13829;48.990;8.346;2024-03-22T13:42:03;19.40;88.80
5055;DHT22;13829;48.990;8.346;2024-03-22T13:44:32;19.30;89.10
5055;DHT22;13829;48.990;8.346;2024-03-22T13:46:59;19.20;90.90
5055;DHT22;13829;48.990;8.346;2024-03-22T13:49:27;19.10;90.50
5055;DHT22;13829;48.990;8.346;2024-03-22T13:51:54;19.00;90.80
5055;DHT22;13829;48.990;8.346;2024-03-22T13:54:20;19.00;90.30
5055;DHT22;13829;48.990;8.346;2024-03-22T13:56:47;18.90;90.90
5055;DHT22;13829;48.990;8.346;2024-03-22T13:59:13;18.90;91.00
5055;DHT22;13829;48.990;8.346;2024-03-22T14:01:41;18.90;90.70
5055;DHT22;13829;48.990;8.346;2024-03-22T14:04:10;18.90;90.60
5055;DHT22;13829;48.990;8.346;2024-03-22T14:06:39;19.00;90.70
5055;DHT22;13829;48.990;8.346;2024-03-22T14:09:05;18.90;90.30
5055;DHT22;13829;48.990;8.346;2024-03-22T14:11:35;18.90;90.90
5055;DHT22;13829;48.990;8.346;2024-03-22T14:14:05;19.00;91.10
5055;DHT22;13829;48.990;8.346;2024-03-22T14:16:32;19.00;90.60
5055;DHT22;13829;48.990;8.346;2024-03-22T14:18:59;18.90;91.00
5055;DHT22;13829;48.990;8.346;2024-03-22T14:21:26;18.90;92.10
5055;DHT22;13829;48.990;8.346;2024-03-22T14:23:53;19.00;92.00
5055;DHT22;13829;48.990;8.346;2024-03-22T14:26:21;19.00;91.30
5055;DHT22;13829;48.990;8.346;2024-03-22T14:28:49;19.10;91.20
5055;DHT22;13829;48.990;8.346;2024-03-22T14:31:18;19.10;92.30
5055;DHT22;13829;48.990;8.346;2024-03-22T14:33:45;19.20;92.10
5055;DHT22;13829;48.990;8.346;2024-03-22T14:36:12;19.20;92.00
5055;DHT22;13829;48.990;8.346;2024-03-22T14:38:39;19.30;91.90
5055;DHT22;13829;48.990;8.346;2024-03-22T14:41:07;19.30;92.20
5055;DHT22;13829;48.990;8.346;2024-03-22T14:43:33;19.30;92.00
5055;DHT22;13829;48.990;8.346;2024-03-22T14:46:01;19.30;91.30
5055;DHT22;13829;48.990;8.346;2024-03-22T14:48:27;19.40;91.90
5055;DHT22;13829;48.990;8.346;2024-03-22T14:50:54;19.30;91.60
5055;DHT22;13829;48.990;8.346;2024-03-22T14:53:20;19.30;91.40
5055;DHT22;13829;48.990;8.346;2024-03-22T14:55:54;19.30;91.40
5055;DHT22;13829;48.990;8.346;2024-03-22T14:58:24;19.30;91.90
5055;DHT22;13829;48.990;8.346;2024-03-22T15:00:53;19.20;92.40
5055;DHT22;13829;48.990;8.346;2024-03-22T15:03:19;19.20;92.30
5055;DHT22;13829;48.990;8.346;2024-03-22T15:05:48;19.20;91.70
5055;DHT22;13829;48.990;8.346;2024-03-22T15:08:15;19.20;91.70
5055;DHT22;13829;48.990;8.346;2024-03-22T15:10:42;19.30;92.30
5055;DHT22;13829;48.990;8.346;2024-03-22T15:13:09;19.30;92.20
5055;DHT22;13829;48.990;8.346;2024-03-22T15:15:37;19.30;92.10
5055;DHT22;13829;48.990;8.346;2024-03-22T15:18:04;19.40;92.40
5055;DHT22;13829;48.990;8.346;2024-03-22T15:20:32;19.30;91.80
5055;DHT22;13829;48.990;8.346;2024-03-22T15:22:58;19.30;92.40
5055;DHT22;13829;48.990;8.346;2024-03-22T15:25:25;19.50;93.10
5055;DHT22;13829;48.990;8.346;2024-03-22T15:27:51;19.60;93.40
5055;DHT22;13829;48.990;8.346;2024-03-22T15:30:19;19.60;92.60
5055;DHT22;13829;48.990;8.346;2024-03-22T15:32:46;19.60;92.30
5055;DHT22;13829;48.990;8.346;2024-03-22T15:35:13;19.60;91.10
5055;DHT22;13829;48.990;8.346;2024-03-22T15:37:40;19.60;91.30
5055;DHT22;13829;48.990;8.346;2024-03-22T15:40:08;19.30;92.00
5055;DHT22;13829;48.990;8.346;2024-03-22T15:42:34;19.30;91.60
5055;DHT22;13829;48.990;8.346;2024-03-22T15:45:01;19.20;92.40
5055;DHT22;13829;48.990;8.346;2024-03-22T15:47:29;18.90;92.50